Terminal Aerodrome Forecast
Issued by NWS Portland, OR

Home | Current Version | Previous Version | Text Only | Print | Product List | Glossary On
Versions: 1 2 3 4 5 6 7 8 9 10 11 12 13 14 15 16 17 18 19 20 21 22 23 24 25 26 27 28 29 30 31 32 33 34
000
FTUS46 KPQR 111310 AAA
TAFAST
TAF AMD
KAST 111310Z 1113/1212 09004KT P6SM -RA OVC050
     FM112300 15009KT 5SM -RA BKN025 OVC050
     FM120200 18008KT P6SM OVC025
     FM121000 18008G15KT P6SM -RA SCT025 OVC050=

USA.gov is the U.S. government's official web portal to all federal, state and local government web resources and services.